Time,TemperatureF,DewpointF,PressureIn,WindDirection,WindDirectionDegrees,WindSpeedMPH,WindSpeedGustMPH,Humidity,HourlyPrecipIn,Conditions,Clouds,dailyrainin,SoftwareType,DateUTC
2013-07-15 00:01:00,55.0,37.0,29.96,WSW,240,0.0,0.0,51,0.00,,,0.00,,2013-07-15 06:01:00,
2013-07-15 00:11:00,55.0,37.0,29.96,WSW,240,0.0,0.0,51,0.00,,,0.00,,2013-07-15 06:11:00,
2013-07-15 00:22:00,54.0,37.0,29.94,WSW,240,0.0,0.0,53,0.00,,,0.00,,2013-07-15 06:22:00,
2013-07-15 00:32:00,54.0,37.0,29.94,WSW,240,0.0,0.0,53,0.00,,,0.00,,2013-07-15 06:32:00,
2013-07-15 00:42:00,54.0,37.0,29.94,WSW,240,0.0,0.0,53,0.00,,,0.00,,2013-07-15 06:42:00,
2013-07-15 00:53:00,54.0,36.0,29.95,WSW,240,0.0,1.0,51,0.00,,,0.00,,2013-07-15 06:53:00,
2013-07-15 01:01:00,54.0,36.0,29.95,WSW,240,0.0,1.0,51,0.00,,,0.00,,2013-07-15 07:01:00,
2013-07-15 01:11:00,54.0,36.0,29.95,WSW,240,0.0,1.0,51,0.00,,,0.00,,2013-07-15 07:11:00,
2013-07-15 01:21:00,52.0,36.0,29.96,WSW,240,0.0,0.0,55,0.00,,,0.00,,2013-07-15 07:21:00,
2013-07-15 01:32:00,52.0,36.0,29.96,WSW,240,0.0,0.0,55,0.00,,,0.00,,2013-07-15 07:32:00,
2013-07-15 01:44:00,52.0,36.0,29.96,WSW,240,0.0,0.0,55,0.00,,,0.00,,2013-07-15 07:44:00,
2013-07-15 01:53:00,51.0,35.0,29.93,WSW,240,0.0,0.0,54,0.00,,,0.00,,2013-07-15 07:53:00,
2013-07-15 02:01:00,51.0,35.0,29.93,WSW,240,0.0,0.0,54,0.00,,,0.00,,2013-07-15 08:01:00,
2013-07-15 02:11:00,51.0,35.0,29.93,WSW,240,0.0,0.0,54,0.00,,,0.00,,2013-07-15 08:11:00,
2013-07-15 02:22:00,51.0,35.0,29.93,WSW,240,0.0,1.0,54,0.00,,,0.00,,2013-07-15 08:22:00,
2013-07-15 02:32:00,51.0,35.0,29.93,WSW,240,0.0,1.0,54,0.00,,,0.00,,2013-07-15 08:32:00,
2013-07-15 02:43:00,51.0,35.0,29.93,WSW,240,0.0,1.0,54,0.00,,,0.00,,2013-07-15 08:43:00,
2013-07-15 02:53:00,51.0,34.0,29.94,WSW,242,0.0,1.0,51,0.00,,,0.00,,2013-07-15 08:53:00,
2013-07-15 03:01:00,51.0,34.0,29.94,WSW,242,0.0,1.0,51,0.00,,,0.00,,2013-07-15 09:01:00,
2013-07-15 03:11:00,51.0,34.0,29.94,WSW,242,0.0,1.0,51,0.00,,,0.00,,2013-07-15 09:11:00,
2013-07-15 03:22:00,51.0,31.0,29.94,WSW,242,0.0,0.0,47,0.00,,,0.00,,2013-07-15 09:22:00,
2013-07-15 03:32:00,51.0,31.0,29.94,WSW,242,0.0,0.0,47,0.00,,,0.00,,2013-07-15 09:32:00,
2013-07-15 03:43:00,51.0,31.0,29.94,WSW,242,0.0,0.0,47,0.00,,,0.00,,2013-07-15 09:43:00,
2013-07-15 03:52:00,50.0,31.0,29.94,WSW,242,0.0,0.0,48,0.00,,,0.00,,2013-07-15 09:52:00,
2013-07-15 04:01:00,50.0,31.0,29.94,WSW,242,0.0,0.0,48,0.00,,,0.00,,2013-07-15 10:01:00,
2013-07-15 04:11:00,50.0,31.0,29.94,WSW,242,0.0,0.0,48,0.00,,,0.00,,2013-07-15 10:11:00,
2013-07-15 04:21:00,50.0,31.0,29.93,WSW,242,0.0,0.0,48,0.00,,,0.00,,2013-07-15 10:21:00,
2013-07-15 04:32:00,50.0,31.0,29.93,WSW,242,0.0,0.0,48,0.00,,,0.00,,2013-07-15 10:32:00,
2013-07-15 04:43:00,50.0,31.0,29.93,WSW,242,0.0,0.0,48,0.00,,,0.00,,2013-07-15 10:43:00,
2013-07-15 04:53:00,49.0,33.0,29.94,WSW,242,0.0,0.0,53,0.00,,,0.00,,2013-07-15 10:53:00,
2013-07-15 05:01:00,49.0,33.0,29.94,WSW,242,0.0,0.0,53,0.00,,,0.00,,2013-07-15 11:01:00,
2013-07-15 05:11:00,49.0,33.0,29.94,WSW,242,0.0,0.0,53,0.00,,,0.00,,2013-07-15 11:11:00,
2013-07-15 05:22:00,49.0,34.0,29.93,WSW,242,0.0,0.0,55,0.00,,,0.00,,2013-07-15 11:22:00,
2013-07-15 05:32:00,49.0,34.0,29.93,WSW,242,0.0,0.0,55,0.00,,,0.00,,2013-07-15 11:32:00,
2013-07-15 05:42:00,49.0,34.0,29.93,WSW,242,0.0,0.0,55,0.00,,,0.00,,2013-07-15 11:42:00,
2013-07-15 05:52:00,48.0,32.0,29.91,West,277,0.0,1.0,53,0.00,,,0.00,,2013-07-15 11:52:00,
2013-07-15 06:01:00,48.0,32.0,29.91,West,277,0.0,1.0,53,0.00,,,0.00,,2013-07-15 12:01:00,
2013-07-15 06:22:00,48.0,32.0,29.91,West,277,0.0,1.0,54,0.00,,,0.00,,2013-07-15 12:22:00,
2013-07-15 06:32:00,48.0,32.0,29.91,West,277,0.0,1.0,54,0.00,,,0.00,,2013-07-15 12:32:00,
2013-07-15 06:42:00,48.0,32.0,29.91,West,277,0.0,1.0,54,0.00,,,0.00,,2013-07-15 12:42:00,
2013-07-15 06:52:00,48.0,32.0,29.92,West,277,0.0,0.0,54,0.00,,,0.00,,2013-07-15 12:52:00,
2013-07-15 07:01:00,48.0,32.0,29.92,West,277,0.0,0.0,54,0.00,,,0.00,,2013-07-15 13:01:00,
2013-07-15 07:11:00,48.0,32.0,29.92,West,277,0.0,0.0,54,0.00,,,0.00,,2013-07-15 13:11:00,
2013-07-15 07:22:00,50.0,34.0,29.93,SSE,157,0.0,1.0,53,0.00,,,0.00,,2013-07-15 13:22:00,
2013-07-15 07:32:00,50.0,34.0,29.93,SSE,157,0.0,1.0,53,0.00,,,0.00,,2013-07-15 13:32:00,
2013-07-15 07:43:00,50.0,34.0,29.93,SSE,157,0.0,1.0,53,0.00,,,0.00,,2013-07-15 13:43:00,
2013-07-15 07:53:00,52.0,35.0,29.92,SW,225,0.0,2.0,53,0.00,,,0.00,,2013-07-15 13:53:00,
2013-07-15 08:02:00,52.0,35.0,29.92,SW,225,0.0,2.0,53,0.00,,,0.00,,2013-07-15 14:02:00,
2013-07-15 08:11:00,52.0,35.0,29.92,SW,225,0.0,2.0,53,0.00,,,0.00,,2013-07-15 14:11:00,
2013-07-15 08:22:00,55.0,39.0,29.93,NW,325,0.0,2.0,54,0.00,,,0.00,,2013-07-15 14:22:00,
2013-07-15 08:33:00,55.0,39.0,29.93,NW,325,0.0,2.0,54,0.00,,,0.00,,2013-07-15 14:33:00,
2013-07-15 08:42:00,55.0,39.0,29.93,NW,325,0.0,2.0,54,0.00,,,0.00,,2013-07-15 14:42:00,
2013-07-15 09:02:00,61.0,43.0,29.93,NW,325,1.0,2.0,52,0.00,,,0.00,,2013-07-15 15:02:00,
2013-07-15 09:13:00,61.0,43.0,29.93,NW,325,1.0,2.0,52,0.00,,,0.00,,2013-07-15 15:13:00,
2013-07-15 10:52:00,77.0,36.0,29.89,ENE,76,0.0,4.0,23,0.00,,,0.00,,2013-07-15 16:52:00,
2013-07-15 12:22:00,79.0,37.0,29.91,ESE,121,1.0,8.0,22,0.00,,,0.00,,2013-07-15 18:22:00,
2013-07-15 12:32:00,79.0,37.0,29.91,ESE,121,1.0,8.0,22,0.00,,,0.00,,2013-07-15 18:32:00,
2013-07-15 12:45:00,79.0,37.0,29.91,ESE,121,1.0,8.0,22,0.00,,,0.00,,2013-07-15 18:45:00,
2013-07-15 13:11:00,79.0,33.0,29.91,ESE,112,1.0,6.0,19,0.00,,,0.00,,2013-07-15 19:11:00,
2013-07-15 13:23:00,81.0,39.0,29.90,ENE,72,1.0,5.0,22,0.00,,,0.00,,2013-07-15 19:23:00,
2013-07-15 13:32:00,81.0,39.0,29.90,ENE,72,1.0,5.0,22,0.00,,,0.00,,2013-07-15 19:32:00,
2013-07-15 13:47:00,81.0,39.0,29.90,ENE,72,1.0,5.0,22,0.00,,,0.00,,2013-07-15 19:47:00,
2013-07-15 13:56:00,83.0,36.0,29.89,NNW,346,2.0,7.0,19,0.00,,,0.00,,2013-07-15 19:56:00,
2013-07-15 14:01:00,83.0,36.0,29.89,NNW,346,2.0,7.0,19,0.00,,,0.00,,2013-07-15 20:01:00,
2013-07-15 14:13:00,83.0,36.0,29.89,NNW,346,2.0,7.0,19,0.00,,,0.00,,2013-07-15 20:13:00,
2013-07-15 14:32:00,83.0,35.0,29.90,ENE,70,2.0,6.0,18,0.00,,,0.00,,2013-07-15 20:32:00,
2013-07-15 14:43:00,83.0,35.0,29.90,ENE,70,2.0,6.0,18,0.00,,,0.00,,2013-07-15 20:43:00,
2013-07-15 15:12:00,83.0,29.0,29.90,North,351,2.0,6.0,14,0.00,,,0.00,,2013-07-15 21:12:00,
2013-07-15 15:23:00,82.0,30.0,29.91,ENE,78,1.0,7.0,15,0.00,,,0.00,,2013-07-15 21:23:00,
2013-07-15 15:32:00,82.0,30.0,29.91,ENE,78,1.0,7.0,15,0.00,,,0.00,,2013-07-15 21:32:00,
2013-07-15 15:48:00,82.0,30.0,29.91,ENE,78,1.0,7.0,15,0.00,,,0.00,,2013-07-15 21:48:00,
2013-07-15 16:01:00,83.0,31.0,29.90,East,94,1.0,7.0,15,0.00,,,0.00,,2013-07-15 22:01:00,
2013-07-15 16:22:00,82.0,28.0,29.91,ESE,110,2.0,6.0,14,0.00,,,0.00,,2013-07-15 22:22:00,
2013-07-15 16:54:00,82.0,30.0,29.91,ESE,122,1.0,6.0,15,0.00,,,0.00,,2013-07-15 22:54:00,
2013-07-15 17:01:00,82.0,30.0,29.91,ESE,122,1.0,6.0,15,0.00,,,0.00,,2013-07-15 23:01:00,
2013-07-15 17:13:00,82.0,30.0,29.91,ESE,122,1.0,6.0,15,0.00,,,0.00,,2013-07-15 23:13:00,
2013-07-15 17:33:00,82.0,28.0,29.91,ENE,76,3.0,7.0,14,0.00,,,0.00,,2013-07-15 23:33:00,
2013-07-15 17:53:00,81.0,29.0,29.89,ENE,63,1.0,5.0,15,0.00,,,0.00,,2013-07-15 23:53:00,
2013-07-15 18:02:00,81.0,29.0,29.89,ENE,63,1.0,5.0,15,0.00,,,0.00,,2013-07-16 00:02:00,
2013-07-15 18:23:00,81.0,31.0,29.89,East,88,1.0,5.0,16,0.00,,,0.00,,2013-07-16 00:23:00,
2013-07-15 18:53:00,79.0,30.0,29.89,East,88,1.0,4.0,17,0.00,,,0.00,,2013-07-16 00:53:00,
2013-07-15 19:58:00,77.0,33.0,29.90,NNW,344,0.0,3.0,20,0.00,,,0.00,,2013-07-16 01:58:00,
2013-07-15 20:11:00,77.0,33.0,29.90,NNW,344,0.0,3.0,20,0.00,,,0.00,,2013-07-16 02:11:00,
2013-07-15 20:23:00,75.0,32.0,29.91,ESE,107,0.0,5.0,21,0.00,,,0.00,,2013-07-16 02:23:00,
2013-07-15 20:33:00,75.0,32.0,29.91,ESE,107,0.0,5.0,21,0.00,,,0.00,,2013-07-16 02:33:00,
2013-07-15 20:54:00,73.0,35.0,29.92,North,9,0.0,1.0,25,0.00,,,0.00,,2013-07-16 02:54:00,
2013-07-15 21:01:00,73.0,35.0,29.92,North,9,0.0,1.0,25,0.00,,,0.00,,2013-07-16 03:01:00,
2013-07-15 21:13:00,73.0,35.0,29.92,North,9,0.0,1.0,25,0.00,,,0.00,,2013-07-16 03:13:00,
2013-07-15 21:23:00,70.0,38.0,29.91,North,9,0.0,0.0,31,0.00,,,0.00,,2013-07-16 03:23:00,
2013-07-15 21:33:00,70.0,38.0,29.91,North,9,0.0,0.0,31,0.00,,,0.00,,2013-07-16 03:33:00,
2013-07-15 21:48:00,70.0,38.0,29.91,North,9,0.0,0.0,31,0.00,,,0.00,,2013-07-16 03:48:00,
2013-07-15 22:01:00,67.0,41.0,29.94,North,9,0.0,1.0,38,0.00,,,0.00,,2013-07-16 04:01:00,
2013-07-15 22:12:00,67.0,41.0,29.94,North,9,0.0,1.0,38,0.00,,,0.00,,2013-07-16 04:12:00,
2013-07-15 22:32:00,63.0,41.0,29.94,North,9,0.0,0.0,44,0.00,,,0.00,,2013-07-16 04:32:00,
2013-07-15 22:43:00,63.0,41.0,29.94,North,9,0.0,0.0,44,0.00,,,0.00,,2013-07-16 04:43:00,
2013-07-15 22:53:00,61.0,39.0,29.94,North,9,0.0,1.0,44,0.00,,,0.00,,2013-07-16 04:53:00,
2013-07-15 23:01:00,61.0,39.0,29.94,North,9,0.0,1.0,44,0.00,,,0.00,,2013-07-16 05:01:00,
2013-07-15 23:11:00,61.0,39.0,29.94,North,9,0.0,1.0,44,0.00,,,0.00,,2013-07-16 05:11:00,
2013-07-15 23:21:00,59.0,40.0,29.97,North,9,0.0,0.0,49,0.00,,,0.00,,2013-07-16 05:21:00,
2013-07-15 23:32:00,59.0,40.0,29.97,North,9,0.0,0.0,49,0.00,,,0.00,,2013-07-16 05:32:00,
2013-07-15 23:43:00,59.0,40.0,29.97,North,9,0.0,0.0,49,0.00,,,0.00,,2013-07-16 05:43:00,
2013-07-15 23:52:00,55.0,39.0,29.98,North,9,0.0,1.0,54,0.00,,,0.00,,2013-07-16 05:52:00,